createdAt,value
2019-06-19T00:00:16.013Z,9.73
2019-06-19T00:02:43.307Z,8.80
2019-06-19T00:05:12.816Z,10.73
2019-06-19T00:07:48.961Z,11.23
2019-06-19T00:10:16.355Z,9.60
2019-06-19T00:12:43.648Z,10.70
2019-06-19T00:15:13.139Z,11.20
2019-06-19T00:17:39.923Z,9.37
2019-06-19T00:20:07.159Z,11.63
2019-06-19T00:22:34.431Z,10.27
2019-06-19T00:25:03.776Z,11.03
2019-06-19T00:27:30.659Z,9.40
2019-06-19T00:29:57.883Z,9.50
2019-06-19T00:32:25.121Z,10.53
2019-06-19T00:34:52.345Z,9.00
2019-06-19T00:37:20.995Z,9.67
2019-06-19T00:39:48.373Z,8.40
2019-06-19T00:42:15.613Z,9.93
2019-06-19T00:44:42.827Z,9.40
2019-06-19T00:47:10.914Z,9.40
2019-06-19T00:49:40.894Z,10.07
2019-06-19T00:52:07.595Z,10.83
2019-06-19T00:54:36.479Z,9.70
2019-06-19T00:57:11.272Z,9.13
2019-06-19T00:59:52.322Z,9.40
2019-06-19T01:02:07.464Z,9.80
2019-06-19T01:04:34.693Z,9.00
2019-06-19T01:07:01.936Z,9.97
2019-06-19T01:09:31.291Z,8.97
2019-06-19T01:11:58.092Z,8.43
2019-06-19T01:14:25.307Z,9.20
2019-06-19T01:16:52.532Z,8.33
2019-06-19T01:19:21.117Z,9.43
2019-06-19T01:21:51.341Z,8.93
2019-06-19T01:24:17.654Z,9.23
2019-06-19T01:26:44.970Z,9.60
2019-06-19T01:29:12.199Z,8.00
2019-06-19T01:31:41.403Z,8.37
2019-06-19T01:34:08.411Z,9.13
2019-06-19T01:36:35.649Z,7.10
2019-06-19T01:39:03.178Z,8.73
2019-06-19T01:41:31.934Z,9.40
2019-06-19T01:44:01.361Z,7.93
2019-06-19T01:46:28.378Z,8.30
2019-06-19T01:48:55.608Z,7.93
2019-06-19T01:51:22.834Z,9.03
2019-06-19T01:54:08.049Z,8.80
2019-06-19T01:56:35.268Z,8.40
2019-06-19T01:59:02.491Z,8.00
2019-06-19T02:01:31.176Z,8.27
2019-06-19T02:04:00.832Z,8.73
2019-06-19T02:06:27.577Z,7.50
2019-06-19T02:08:54.805Z,9.03
2019-06-19T02:11:22.032Z,7.80
2019-06-19T02:13:51.333Z,7.77
2019-06-19T02:16:20.655Z,7.80
2019-06-19T02:18:47.174Z,9.10
2019-06-19T02:21:14.408Z,7.13
2019-06-19T02:23:41.615Z,7.20
2019-06-19T02:26:11.505Z,8.00
2019-06-19T02:28:40.420Z,8.10
2019-06-19T02:31:12.253Z,8.13
2019-06-19T02:33:35.715Z,7.90
2019-06-19T02:36:02.947Z,8.43
2019-06-19T02:38:31.441Z,8.27
2019-06-19T02:41:00.487Z,7.50
2019-06-19T02:43:28.132Z,7.50
2019-06-19T02:45:55.379Z,6.90
2019-06-19T02:48:22.655Z,6.83
2019-06-19T02:50:49.867Z,7.43
2019-06-19T02:53:17.176Z,5.93
2019-06-19T02:55:44.433Z,7.10
2019-06-19T02:58:11.776Z,7.47
2019-06-19T03:00:39.763Z,7.30
2019-06-19T03:03:06.985Z,5.97
2019-06-19T03:05:34.209Z,6.67
2019-06-19T03:08:01.438Z,6.50
2019-06-19T03:10:28.660Z,6.83
2019-06-19T03:12:55.879Z,6.50
2019-06-19T03:15:23.210Z,6.13
2019-06-19T03:17:50.475Z,6.80
2019-06-19T03:20:17.695Z,6.90
2019-06-19T03:22:45.007Z,6.50
2019-06-19T03:25:12.295Z,6.30
2019-06-19T03:27:39.508Z,7.27
2019-06-19T03:30:07.710Z,6.40
2019-06-19T03:32:34.921Z,6.17
2019-06-19T03:35:02.156Z,5.73
2019-06-19T03:37:29.393Z,5.50
2019-06-19T03:39:57.120Z,6.27
2019-06-19T03:42:24.374Z,6.97
2019-06-19T03:44:51.648Z,6.60
2019-06-19T03:47:18.868Z,6.43
2019-06-19T03:49:46.095Z,6.27
2019-06-19T03:52:13.355Z,6.53
2019-06-19T03:54:40.900Z,7.03
2019-06-19T03:57:08.202Z,5.60
2019-06-19T03:59:35.466Z,6.63
2019-06-19T04:02:02.687Z,4.83
2019-06-19T04:04:29.916Z,5.13
2019-06-19T04:06:57.161Z,5.70
2019-06-19T04:09:24.353Z,5.10
2019-06-19T04:11:51.585Z,5.60
2019-06-19T04:14:18.890Z,5.20
2019-06-19T04:16:46.181Z,5.17
2019-06-19T04:19:13.520Z,4.53
2019-06-19T04:21:40.780Z,6.50
2019-06-19T04:24:08.009Z,5.50
2019-06-19T04:26:35.298Z,5.00
2019-06-19T04:29:04.211Z,4.20
2019-06-19T04:31:31.705Z,4.07
2019-06-19T04:33:58.928Z,4.67
2019-06-19T04:36:26.155Z,4.30
2019-06-19T04:38:53.440Z,4.10
2019-06-19T04:41:20.749Z,4.63
2019-06-19T04:43:47.942Z,4.20
2019-06-19T04:46:15.174Z,5.00
2019-06-19T04:48:42.398Z,3.60
2019-06-19T04:51:09.612Z,3.43
2019-06-19T04:53:36.901Z,4.20
2019-06-19T04:56:04.131Z,4.67
2019-06-19T04:58:31.348Z,4.07
2019-06-19T05:00:58.851Z,3.67
2019-06-19T05:03:26.143Z,3.63
2019-06-19T05:05:55.312Z,3.70
2019-06-19T05:08:23.976Z,4.27
2019-06-19T05:10:51.228Z,3.33
2019-06-19T05:13:18.446Z,3.47
2019-06-19T05:15:45.703Z,3.70
2019-06-19T05:18:12.928Z,4.10
2019-06-19T05:20:40.157Z,3.87
2019-06-19T05:23:07.372Z,3.23
2019-06-19T05:25:34.612Z,4.00
2019-06-19T05:28:01.841Z,3.77
2019-06-19T05:30:29.049Z,3.80
2019-06-19T05:32:56.267Z,4.00
2019-06-19T05:35:23.485Z,3.13
2019-06-19T05:37:50.717Z,4.10
2019-06-19T05:40:17.942Z,3.27
2019-06-19T05:42:45.171Z,4.30
2019-06-19T05:45:12.459Z,3.83
2019-06-19T05:47:39.700Z,3.33
2019-06-19T05:50:07.083Z,2.80
2019-06-19T05:52:34.305Z,3.60
2019-06-19T05:55:01.608Z,3.30
2019-06-19T05:57:28.834Z,3.10
2019-06-19T05:59:56.133Z,3.17
2019-06-19T06:02:23.376Z,3.90
2019-06-19T06:04:50.653Z,2.90
2019-06-19T06:07:17.925Z,3.10
2019-06-19T06:09:45.137Z,4.03
2019-06-19T06:12:12.361Z,3.23
2019-06-19T06:14:39.580Z,2.87
2019-06-19T06:17:06.849Z,3.30
2019-06-19T06:19:34.092Z,3.50
2019-06-19T06:22:03.731Z,3.30
2019-06-19T06:24:30.947Z,3.00
2019-06-19T06:26:58.180Z,2.90
2019-06-19T06:29:25.396Z,2.80
2019-06-19T06:31:52.944Z,3.13
2019-06-19T06:34:20.163Z,2.53
2019-06-19T06:36:47.423Z,3.20
2019-06-19T06:39:14.632Z,4.03
2019-06-19T06:41:41.860Z,2.80
2019-06-19T06:44:09.084Z,2.57
2019-06-19T06:46:36.303Z,2.60
2019-06-19T06:49:03.536Z,2.63
2019-06-19T06:51:30.871Z,2.87
2019-06-19T06:53:58.076Z,2.93
2019-06-19T06:56:25.315Z,2.90
2019-06-19T06:58:52.548Z,2.10
2019-06-19T07:01:19.848Z,3.20
2019-06-19T07:03:47.074Z,3.07
2019-06-19T07:06:14.288Z,2.03
2019-06-19T07:08:41.841Z,2.47
2019-06-19T07:11:09.100Z,3.10
2019-06-19T07:13:36.324Z,2.73
2019-06-19T07:16:03.540Z,2.20
2019-06-19T07:18:31.156Z,2.80
2019-06-19T07:20:58.368Z,2.83
2019-06-19T07:23:25.684Z,2.90
2019-06-19T07:25:53.075Z,3.13
2019-06-19T07:28:20.301Z,2.43
2019-06-19T07:30:47.542Z,2.43
2019-06-19T07:33:14.770Z,2.50
2019-06-19T07:35:41.993Z,2.70
2019-06-19T07:38:09.223Z,2.40
2019-06-19T07:40:36.440Z,3.10
2019-06-19T07:43:03.696Z,2.60
2019-06-19T07:45:30.938Z,2.50
2019-06-19T07:47:58.278Z,2.37
2019-06-19T07:50:25.775Z,3.40
2019-06-19T07:52:53.056Z,3.23
2019-06-19T07:55:20.351Z,2.40
2019-06-19T07:57:47.579Z,2.80
2019-06-19T08:00:15.072Z,2.53
2019-06-19T08:02:42.340Z,2.70
2019-06-19T08:05:09.649Z,2.30
2019-06-19T08:07:36.877Z,2.60
2019-06-19T08:10:08.367Z,2.83
2019-06-19T08:12:35.617Z,5.33
2019-06-19T08:15:02.908Z,2.30
2019-06-19T08:17:30.219Z,3.20
2019-06-19T08:19:57.503Z,2.93
2019-06-19T08:22:24.761Z,2.97
2019-06-19T08:24:52.031Z,3.10
2019-06-19T08:27:19.247Z,2.90
2019-06-19T08:29:46.493Z,2.47
2019-06-19T08:32:13.709Z,3.00
2019-06-19T08:34:49.230Z,3.10
2019-06-19T08:37:11.207Z,2.57
2019-06-19T08:39:38.706Z,3.17
2019-06-19T08:42:05.935Z,2.83
2019-06-19T08:44:33.162Z,2.70
2019-06-19T08:47:00.400Z,3.03
2019-06-19T08:49:27.624Z,2.90
2019-06-19T08:51:54.840Z,2.80
2019-06-19T08:54:22.063Z,2.70
2019-06-19T08:56:49.303Z,2.80
2019-06-19T08:59:16.526Z,3.07
2019-06-19T09:01:43.733Z,2.70
2019-06-19T09:04:10.972Z,3.00
2019-06-19T09:06:38.193Z,2.60
2019-06-19T09:09:06.803Z,3.03
2019-06-19T09:11:34.051Z,2.80
2019-06-19T09:14:01.291Z,3.17
2019-06-19T09:16:28.628Z,3.10
2019-06-19T09:18:55.835Z,2.60
2019-06-19T09:21:23.054Z,2.67
2019-06-19T09:23:50.393Z,3.07
2019-06-19T09:26:17.682Z,3.50
2019-06-19T09:28:45.041Z,2.67
2019-06-19T09:31:12.395Z,3.47
2019-06-19T09:33:39.612Z,3.03
2019-06-19T09:36:06.843Z,3.13
2019-06-19T09:38:34.060Z,2.30
2019-06-19T09:41:01.305Z,3.03
2019-06-19T09:43:28.512Z,2.20
2019-06-19T09:45:55.750Z,2.50
2019-06-19T09:48:22.971Z,2.50
2019-06-19T09:50:50.200Z,2.70
2019-06-19T09:53:17.423Z,2.30
2019-06-19T09:55:44.763Z,2.23
2019-06-19T09:58:12.105Z,2.40
2019-06-19T10:00:39.460Z,2.67
2019-06-19T10:03:06.738Z,2.73
2019-06-19T10:05:33.972Z,2.23
2019-06-19T10:08:01.183Z,2.43
2019-06-19T10:10:31.713Z,2.87
2019-06-19T10:12:59.000Z,2.53
2019-06-19T10:15:26.229Z,2.57
2019-06-19T10:17:53.878Z,2.87
2019-06-19T10:20:21.108Z,2.70
2019-06-19T10:22:48.421Z,2.20
2019-06-19T10:25:16.015Z,2.17
2019-06-19T10:27:43.231Z,2.83
2019-06-19T10:30:10.697Z,2.37
2019-06-19T10:32:37.917Z,2.50
2019-06-19T10:35:05.222Z,2.57
2019-06-19T10:37:32.431Z,2.10
2019-06-19T10:39:59.673Z,2.93
2019-06-19T10:42:26.896Z,2.00
2019-06-19T10:44:54.210Z,2.80
2019-06-19T10:47:21.473Z,2.73
2019-06-19T10:49:48.793Z,2.43
2019-06-19T10:52:16.141Z,2.37
2019-06-19T10:54:43.377Z,2.57
2019-06-19T10:57:10.601Z,2.47
2019-06-19T10:59:37.838Z,2.90
2019-06-19T11:02:05.061Z,2.70
2019-06-19T11:04:32.284Z,3.20
2019-06-19T11:06:59.506Z,2.83
2019-06-19T11:09:26.776Z,2.97
2019-06-19T11:11:54.017Z,2.60
2019-06-19T11:14:22.969Z,2.77
2019-06-19T11:16:50.248Z,2.80
2019-06-19T11:19:17.536Z,2.77
2019-06-19T11:21:44.769Z,3.53
2019-06-19T11:24:12.055Z,2.70
2019-06-19T11:26:39.288Z,3.00
2019-06-19T11:29:06.505Z,2.50
2019-06-19T11:31:33.741Z,2.60
2019-06-19T11:34:00.986Z,2.40
2019-06-19T11:36:28.338Z,3.33
2019-06-19T11:38:55.595Z,2.40
2019-06-19T11:41:22.861Z,3.33
2019-06-19T11:43:50.072Z,2.83
2019-06-19T11:46:17.295Z,3.37
2019-06-19T11:48:44.522Z,3.70
2019-06-19T11:51:11.752Z,3.00
2019-06-19T11:53:38.971Z,2.40
2019-06-19T11:56:06.195Z,2.57
2019-06-19T11:58:33.427Z,2.80
2019-06-19T12:01:00.643Z,3.20
2019-06-19T12:03:27.891Z,2.60
2019-06-19T12:05:55.119Z,2.30
2019-06-19T12:08:22.360Z,2.40
2019-06-19T12:10:49.640Z,2.50
2019-06-19T12:13:16.892Z,3.00
2019-06-19T12:15:44.163Z,2.77
2019-06-19T12:18:11.548Z,2.83
2019-06-19T12:20:38.784Z,2.63
2019-06-19T12:23:06.009Z,2.63
2019-06-19T12:25:33.645Z,2.70
2019-06-19T12:28:00.933Z,2.90
2019-06-19T12:30:28.215Z,2.67
2019-06-19T12:32:55.507Z,2.63
2019-06-19T12:35:22.792Z,2.67
2019-06-19T12:37:50.032Z,2.73
2019-06-19T12:40:18.786Z,2.70
2019-06-19T12:42:46.009Z,3.13
2019-06-19T12:45:13.791Z,2.83
2019-06-19T12:47:41.005Z,3.00
2019-06-19T12:50:09.009Z,2.60
2019-06-19T12:52:36.288Z,2.20
2019-06-19T12:55:05.312Z,2.83
2019-06-19T12:57:32.584Z,2.60
2019-06-19T12:59:59.842Z,2.77
2019-06-19T13:02:27.115Z,2.63
2019-06-19T13:04:54.328Z,2.30
2019-06-19T13:07:21.551Z,2.57
2019-06-19T13:09:48.875Z,2.50
2019-06-19T13:12:16.087Z,2.00
2019-06-19T13:14:43.311Z,11.17
2019-06-19T13:17:10.544Z,1.90
2019-06-19T13:19:37.769Z,2.10
2019-06-19T13:22:04.989Z,1.90
2019-06-19T13:24:32.203Z,2.00
2019-06-19T13:26:59.475Z,2.10
2019-06-19T13:29:26.694Z,2.13
2019-06-19T13:31:53.958Z,2.83
2019-06-19T13:34:21.462Z,1.70
2019-06-19T13:37:02.779Z,1.90
2019-06-19T13:39:17.877Z,1.80
2019-06-19T13:41:45.094Z,2.20
2019-06-19T13:44:12.328Z,2.20
2019-06-19T13:46:39.552Z,1.90
2019-06-19T13:49:06.784Z,1.97
2019-06-19T13:51:34.259Z,2.13
2019-06-19T13:54:01.542Z,2.40
2019-06-19T13:56:28.818Z,2.10
2019-06-19T13:58:56.048Z,2.73
2019-06-19T14:01:23.269Z,2.70
2019-06-19T14:03:50.588Z,2.63
2019-06-19T14:06:17.802Z,2.50
2019-06-19T14:08:45.025Z,2.73
2019-06-19T14:11:12.260Z,2.43
2019-06-19T14:13:39.487Z,2.17
2019-06-19T14:16:06.725Z,3.10
2019-06-19T14:18:34.012Z,2.53
2019-06-19T14:21:01.238Z,2.53
2019-06-19T14:23:28.461Z,2.37
2019-06-19T14:25:55.678Z,2.40
2019-06-19T14:28:22.905Z,3.10
2019-06-19T14:30:50.128Z,2.70
2019-06-19T14:33:17.360Z,2.27
2019-06-19T14:35:47.930Z,2.33
2019-06-19T14:38:13.536Z,2.93
2019-06-19T14:40:40.785Z,2.53
2019-06-19T14:43:08.063Z,2.73
2019-06-19T14:45:35.276Z,2.87
2019-06-19T14:48:02.657Z,3.40
2019-06-19T14:50:30.005Z,2.73
2019-06-19T14:52:57.515Z,2.57
2019-06-19T14:55:24.783Z,2.97
2019-06-19T14:57:52.001Z,3.03
2019-06-19T15:00:20.605Z,3.43
2019-06-19T15:02:47.821Z,2.67
2019-06-19T15:05:15.108Z,2.87
2019-06-19T15:07:54.965Z,3.03
2019-06-19T15:10:11.348Z,3.53
2019-06-19T15:12:38.588Z,3.63
2019-06-19T15:15:06.289Z,3.07
2019-06-19T15:17:33.507Z,3.50
2019-06-19T15:20:00.737Z,3.40
2019-06-19T15:22:27.948Z,3.90
2019-06-19T15:24:55.191Z,3.50
2019-06-19T15:27:22.422Z,3.73
2019-06-19T15:29:49.642Z,3.67
2019-06-19T15:32:16.855Z,3.50
2019-06-19T15:34:44.336Z,5.17
2019-06-19T15:37:11.552Z,5.00
2019-06-19T15:39:38.776Z,4.10
2019-06-19T15:42:05.997Z,4.20
2019-06-19T15:44:33.230Z,3.63
2019-06-19T15:47:00.448Z,3.23
2019-06-19T15:49:27.702Z,3.07
2019-06-19T15:51:54.908Z,3.07
2019-06-19T15:54:22.134Z,3.00
2019-06-19T15:56:49.349Z,3.13
2019-06-19T15:59:16.601Z,2.80
2019-06-19T16:01:43.811Z,3.27
2019-06-19T16:04:11.031Z,2.70
2019-06-19T16:06:38.248Z,3.20
2019-06-19T16:09:05.931Z,2.43
2019-06-19T16:11:33.384Z,2.70
2019-06-19T16:14:00.615Z,3.40
2019-06-19T16:16:27.853Z,3.20
2019-06-19T16:18:55.075Z,2.83
2019-06-19T16:21:22.305Z,2.67
2019-06-19T16:23:49.508Z,4.47
2019-06-19T16:26:16.744Z,3.13
2019-06-19T16:28:43.986Z,3.20
2019-06-19T16:31:11.250Z,3.00
2019-06-19T16:33:38.467Z,2.60
2019-06-19T16:36:05.688Z,2.97
2019-06-19T16:38:46.400Z,2.30
2019-06-19T16:41:01.850Z,2.90
2019-06-19T16:43:29.068Z,2.63
2019-06-19T16:45:56.633Z,2.70
2019-06-19T16:48:23.961Z,2.63
2019-06-19T16:50:51.207Z,2.80
2019-06-19T16:53:18.429Z,2.20
2019-06-19T16:55:45.742Z,2.70
2019-06-19T16:58:12.952Z,2.83
2019-06-19T17:00:40.213Z,2.73
2019-06-19T17:03:07.437Z,3.23
2019-06-19T17:05:34.688Z,3.13
2019-06-19T17:08:01.907Z,3.50
2019-06-19T17:10:29.138Z,3.40
2019-06-19T17:12:56.355Z,3.00
2019-06-19T17:15:23.671Z,2.77
2019-06-19T17:17:52.317Z,2.83
2019-06-19T17:20:19.670Z,3.80
2019-06-19T17:22:46.954Z,2.50
2019-06-19T17:25:14.250Z,2.57
2019-06-19T17:27:41.467Z,2.53
2019-06-19T17:30:09.160Z,2.87
2019-06-19T17:32:36.377Z,2.97
2019-06-19T17:35:04.577Z,3.43
2019-06-19T17:37:31.793Z,3.40
2019-06-19T17:39:59.025Z,3.73
2019-06-19T17:42:26.251Z,3.40
2019-06-19T17:44:53.474Z,3.50
2019-06-19T17:47:20.701Z,3.83
2019-06-19T17:49:47.912Z,3.40
2019-06-19T17:52:15.142Z,3.50
2019-06-19T17:54:42.417Z,2.93
2019-06-19T17:57:09.706Z,4.10
2019-06-19T17:59:36.954Z,3.50
2019-06-19T18:02:04.577Z,3.70
2019-06-19T18:04:31.852Z,3.17
2019-06-19T18:06:59.077Z,3.50
2019-06-19T18:09:38.068Z,3.07
2019-06-19T18:11:55.253Z,3.23
2019-06-19T18:14:22.534Z,3.70
2019-06-19T18:16:49.756Z,3.47
2019-06-19T18:19:17.005Z,3.20
2019-06-19T18:21:44.288Z,3.73
2019-06-19T18:24:11.504Z,3.00
2019-06-19T18:26:38.753Z,3.83
2019-06-19T18:29:05.961Z,3.33
2019-06-19T18:31:33.216Z,3.07
2019-06-19T18:34:00.758Z,3.00
2019-06-19T18:36:27.995Z,2.63
2019-06-19T18:38:55.261Z,2.70
2019-06-19T18:41:22.494Z,3.70
2019-06-19T18:43:49.767Z,3.50
2019-06-19T18:46:17.027Z,4.00
2019-06-19T18:48:44.298Z,3.17
2019-06-19T18:51:11.527Z,3.70
2019-06-19T18:53:38.790Z,3.73
2019-06-19T18:56:06.058Z,4.17
2019-06-19T18:58:33.274Z,3.60
2019-06-19T19:01:00.516Z,3.47
2019-06-19T19:03:27.724Z,3.50
2019-06-19T19:05:54.938Z,4.27
2019-06-19T19:08:22.178Z,3.40
2019-06-19T19:10:49.389Z,4.70
2019-06-19T19:13:16.734Z,4.00
2019-06-19T19:15:43.956Z,3.90
2019-06-19T19:18:11.192Z,4.00
2019-06-19T19:20:38.419Z,3.80
2019-06-19T19:23:05.645Z,3.70
2019-06-19T19:25:32.858Z,3.93
2019-06-19T19:28:00.078Z,3.77
2019-06-19T19:30:27.364Z,3.33
2019-06-19T19:32:54.591Z,3.80
2019-06-19T19:35:21.805Z,4.43
2019-06-19T19:37:49.422Z,3.87
2019-06-19T19:40:29.116Z,3.90
2019-06-19T19:42:45.725Z,3.40
2019-06-19T19:45:13.212Z,4.37
2019-06-19T19:47:40.439Z,4.60
2019-06-19T19:50:08.071Z,4.37
2019-06-19T19:52:35.294Z,4.93
2019-06-19T19:55:02.781Z,6.17
2019-06-19T19:57:30.026Z,6.33
2019-06-19T19:59:58.926Z,6.30
2019-06-19T20:02:26.228Z,4.83
2019-06-19T20:04:53.460Z,5.27
2019-06-19T20:07:20.788Z,5.60
2019-06-19T20:09:48.014Z,5.70
2019-06-19T20:12:15.384Z,6.07
2019-06-19T20:14:42.642Z,5.90
2019-06-19T20:17:09.892Z,6.30
2019-06-19T20:19:37.160Z,5.80
2019-06-19T20:22:04.402Z,6.80
2019-06-19T20:24:31.654Z,5.57
2019-06-19T20:26:59.281Z,5.40
2019-06-19T20:29:26.636Z,5.30
2019-06-19T20:31:53.897Z,5.77
2019-06-19T20:34:21.120Z,5.70
2019-06-19T20:36:48.341Z,5.40
2019-06-19T20:39:16.498Z,4.67
2019-06-19T20:41:43.810Z,5.60
2019-06-19T20:44:11.067Z,5.80
2019-06-19T20:46:38.292Z,5.13
2019-06-19T20:49:05.548Z,6.20
2019-06-19T20:51:33.772Z,5.20
2019-06-19T20:54:01.105Z,5.70
2019-06-19T20:56:28.344Z,5.97
2019-06-19T20:59:02.284Z,6.10
2019-06-19T21:01:24.534Z,4.90
2019-06-19T21:03:51.761Z,6.10
2019-06-19T21:06:18.995Z,5.50
2019-06-19T21:08:46.314Z,5.77
2019-06-19T21:11:20.401Z,6.60
2019-06-19T21:13:42.483Z,7.47
2019-06-19T21:16:09.703Z,7.33
2019-06-19T21:18:36.959Z,6.50
2019-06-19T21:21:04.445Z,6.80
2019-06-19T21:23:31.672Z,5.70
2019-06-19T21:25:58.884Z,5.57
2019-06-19T21:28:26.170Z,6.00
2019-06-19T21:30:53.379Z,5.77
2019-06-19T21:33:20.628Z,5.30
2019-06-19T21:35:47.842Z,6.50
2019-06-19T21:38:15.062Z,4.70
2019-06-19T21:40:42.276Z,5.67
2019-06-19T21:43:09.536Z,5.40
2019-06-19T21:45:36.786Z,6.13
2019-06-19T21:48:04.041Z,8.37
2019-06-19T21:50:31.409Z,7.87
2019-06-19T21:52:58.690Z,6.67
2019-06-19T21:55:25.930Z,5.37
2019-06-19T21:57:53.137Z,6.13
2019-06-19T22:00:40.864Z,8.13
2019-06-19T22:03:08.116Z,6.13
2019-06-19T22:05:35.469Z,7.53
2019-06-19T22:08:02.823Z,6.00
2019-06-19T22:10:30.042Z,6.80
2019-06-19T22:12:57.368Z,8.50
2019-06-19T22:15:24.859Z,4.67
2019-06-19T22:17:52.121Z,7.20
2019-06-19T22:20:19.415Z,6.90
2019-06-19T22:22:47.367Z,7.07
2019-06-19T22:25:15.023Z,8.03
2019-06-19T22:27:42.270Z,7.53
2019-06-19T22:30:11.048Z,8.00
2019-06-19T22:32:38.280Z,7.23
2019-06-19T22:35:06.210Z,8.03
2019-06-19T22:37:33.436Z,8.73
2019-06-19T22:40:00.677Z,9.30
2019-06-19T22:42:27.903Z,7.17
2019-06-19T22:44:55.241Z,9.50
2019-06-19T22:47:22.614Z,9.63
2019-06-19T22:49:49.865Z,10.83
2019-06-19T22:52:17.129Z,9.87
2019-06-19T22:54:44.417Z,9.40
2019-06-19T22:57:11.690Z,8.27
2019-06-19T22:59:38.922Z,6.93
2019-06-19T23:02:19.425Z,8.20
2019-06-19T23:04:46.651Z,7.50
2019-06-19T23:07:13.890Z,5.97
2019-06-19T23:09:41.156Z,6.83
2019-06-19T23:12:08.366Z,6.47
2019-06-19T23:14:36.905Z,5.30
2019-06-19T23:17:05.080Z,4.33
2019-06-19T23:19:32.337Z,4.33
2019-06-19T23:21:59.575Z,3.90
2019-06-19T23:24:26.820Z,3.83
2019-06-19T23:26:54.061Z,4.10
2019-06-19T23:29:21.277Z,3.93
2019-06-19T23:31:48.538Z,4.13
2019-06-19T23:34:15.820Z,3.30
2019-06-19T23:36:43.125Z,3.33
2019-06-19T23:39:10.393Z,4.40
2019-06-19T23:41:37.630Z,3.90
2019-06-19T23:44:04.984Z,4.27
2019-06-19T23:46:32.220Z,5.17
2019-06-19T23:48:59.431Z,4.77
2019-06-19T23:51:26.714Z,4.53
2019-06-19T23:53:54.131Z,3.73
2019-06-19T23:56:21.391Z,3.87
2019-06-19T23:58:48.634Z,3.50
